Time;durP1;ratioP1;P1;durP2;ratioP2;P2;SDS_P1;SDS_P2;PMS_P1;PMS_P2;Temp;Humidity;BMP_temperature;BMP_pressure;BME280_temperature;BME280_humidity;BME280_pressure;Samples;Min_cycle;Max_cycle;Signal;HPM_P1;HPM_P2
2021/03/27 00:00:37;;;;;;;80.40;40.60;;;;;;;6.84;61.48;101113.14;1745249;81;25377;-78
2021/03/27 00:03:39;;;;;;;71.62;35.30;;;;;;;6.85;61.59;101112.16;1696664;81;26519;-78
2021/03/27 00:06:21;;;;;;;78.92;40.10;;;;;;;6.89;61.71;101115.35;1746616;81;25759;-77
2021/03/27 00:09:28;;;;;;;73.78;38.85;;;;;;;6.96;61.84;101097.30;1835993;77;25760;-78
2021/03/27 00:12:09;;;;;;;77.87;39.48;;;;;;;6.88;61.81;101101.72;1790404;79;25841;-77
2021/03/27 00:14:54;;;;;;;78.45;37.65;;;;;;;6.88;61.96;101093.23;1767571;79;27807;-78
2021/03/27 00:17:27;;;;;;;74.27;38.48;;;;;;;6.92;62.06;101095.94;1752658;78;25799;-79
2021/03/27 00:22:53;;;;;;;71.75;36.90;;;;;;;7.01;62.08;101091.01;1823501;77;25553;-77
2021/03/27 00:25:34;;;;;;;68.47;36.03;;;;;;;7.01;62.17;101089.68;1842731;77;25730;-78
2021/03/27 00:28:19;;;;;;;67.97;35.25;;;;;;;6.97;62.16;101088.31;1762043;79;25857;-78
2021/03/27 00:31:01;;;;;;;65.83;34.55;;;;;;;7.00;62.14;101096.50;1782305;79;28620;-78
2021/03/27 00:33:35;;;;;;;64.27;33.42;;;;;;;7.01;62.14;101088.34;1765816;80;25801;-78
2021/03/27 00:36:11;;;;;;;69.97;34.30;;;;;;;7.03;62.16;101087.70;1754485;80;26345;-78
2021/03/27 00:38:43;;;;;;;60.52;32.60;;;;;;;7.03;62.16;101080.23;1743356;80;26423;-77
2021/03/27 00:41:15;;;;;;;63.55;32.70;;;;;;;6.99;62.11;101074.86;1764043;80;25790;-78
2021/03/27 00:43:47;;;;;;;66.15;32.78;;;;;;;6.98;62.18;101071.84;1751755;80;27581;-79
2021/03/27 00:46:17;;;;;;;66.20;32.38;;;;;;;6.97;62.14;101066.19;1751150;80;25614;-78
2021/03/27 00:48:50;;;;;;;75.83;36.93;;;;;;;6.96;62.15;101064.50;1759755;81;25751;-78
2021/03/27 00:51:43;;;;;;;73.07;35.60;;;;;;;6.97;62.24;101066.19;1763938;80;25791;-78
2021/03/27 00:54:33;;;;;;;66.53;33.65;;;;;;;6.96;62.23;101054.70;1760794;80;26228;-78
2021/03/27 00:57:15;;;;;;;62.20;31.57;;;;;;;6.98;62.31;101060.70;1741100;80;27288;-78
2021/03/27 01:00:09;;;;;;;60.05;31.55;;;;;;;7.00;62.32;101053.39;1769503;80;25768;-79
2021/03/27 01:02:55;;;;;;;56.02;29.87;;;;;;;7.07;62.35;101049.63;1825053;77;25703;-78
2021/03/27 01:05:42;;;;;;;54.42;29.50;;;;;;;7.03;62.44;101052.75;1802387;78;26097;-78
2021/03/27 01:08:25;;;;;;;53.68;29.42;;;;;;;7.08;62.53;101047.81;1831875;77;25675;-78
2021/03/27 01:11:16;;;;;;;53.90;28.57;;;;;;;7.03;62.57;101046.94;1799679;78;25840;-78
2021/03/27 01:13:53;;;;;;;53.38;29.45;;;;;;;7.06;62.53;101049.27;1794773;78;26673;-79
2021/03/27 01:16:32;;;;;;;59.45;30.85;;;;;;;7.06;62.56;101043.13;1741854;78;25892;-78
2021/03/27 01:19:05;;;;;;;57.48;29.42;;;;;;;7.06;62.56;101035.95;1762596;79;25718;-78
2021/03/27 01:21:36;;;;;;;54.70;29.18;;;;;;;7.06;62.62;101039.14;1764088;80;25794;-78
2021/03/27 01:24:12;;;;;;;58.83;28.38;;;;;;;7.05;62.71;101038.78;1776912;78;25874;-78
2021/03/27 01:26:55;;;;;;;55.38;29.40;;;;;;;7.06;62.78;101040.47;1783795;78;27522;-78
2021/03/27 01:29:34;;;;;;;54.90;29.00;;;;;;;7.03;62.75;101035.76;1768549;78;26153;-78
2021/03/27 01:32:19;;;;;;;51.83;27.73;;;;;;;7.01;62.75;101036.41;1794478;78;25856;-78
2021/03/27 01:34:51;;;;;;;52.60;27.70;;;;;;;7.01;62.79;101032.94;1773634;79;26417;-77
2021/03/27 01:37:23;;;;;;;48.30;25.95;;;;;;;6.98;62.75;101029.23;1775649;78;25759;-78
2021/03/27 01:40:13;;;;;;;50.43;25.80;;;;;;;6.97;62.83;101023.06;1773631;79;27337;-77
2021/03/27 01:42:58;;;;;;;51.77;26.12;;;;;;;6.97;62.83;101027.58;1798626;78;25803;-78
2021/03/27 01:45:49;;;;;;;52.85;28.27;;;;;;;6.97;62.89;101024.39;1790841;79;26423;-79
2021/03/27 01:48:29;;;;;;;;;;;;;;;6.96;62.92;101017.41;1786722;78;25729;-78
2021/03/27 01:51:05;;;;;;;50.20;25.92;;;;;;;6.91;62.92;101014.36;1708276;81;26010;-78
2021/03/27 01:53:43;;;;;;;56.88;28.40;;;;;;;6.85;63.09;101013.64;1746651;80;28461;-78
2021/03/27 01:56:21;;;;;;;56.95;27.58;;;;;;;6.82;63.11;101007.80;1721057;81;25902;-78
2021/03/27 01:59:09;;;;;;;53.25;26.30;;;;;;;6.79;63.26;101007.60;1715213;82;26403;-79
2021/03/27 02:01:47;;;;;;;50.63;26.48;;;;;;;6.76;63.33;101007.05;1725001;81;25838;-78
2021/03/27 02:04:26;;;;;;;58.70;29.98;;;;;;;6.76;63.42;101005.72;1716141;82;27026;-78
2021/03/27 02:07:01;;;;;;;60.17;31.10;;;;;;;6.75;63.38;101004.91;1737126;82;28554;-78
2021/03/27 02:09:46;;;;;;;57.55;28.98;;;;;;;6.74;63.51;101004.55;1722147;81;25829;-78
2021/03/27 02:12:42;;;;;;;48.15;26.95;;;;;;;6.72;63.58;101002.53;1711043;82;25812;-78
2021/03/27 02:15:32;;;;;;;58.68;28.80;;;;;;;6.69;63.62;101004.67;1738818;81;26599;-78
2021/03/27 02:18:11;;;;;;;56.20;28.53;;;;;;;6.67;63.81;101003.99;1714967;81;26104;-78
2021/03/27 02:21:06;;;;;;;50.23;27.00;;;;;;;6.62;63.77;101004.93;1716224;82;28481;-78
2021/03/27 02:24:03;;;;;;;57.15;27.73;;;;;;;6.58;63.93;101003.08;1760339;79;25714;-78
2021/03/27 02:27:00;;;;;;;55.10;28.55;;;;;;;6.50;64.02;100998.16;1751063;79;25931;-78
2021/03/27 02:29:59;;;;;;;54.20;27.10;;;;;;;6.51;64.25;100999.82;1778659;79;26117;-78
2021/03/27 02:32:56;;;;;;;54.90;28.07;;;;;;;6.53;64.40;100999.17;1786819;79;26215;-78
2021/03/27 02:35:48;;;;;;;55.88;28.12;;;;;;;6.52;64.41;100989.53;1754230;79;27326;-78
2021/03/27 02:38:54;;;;;;;49.67;26.57;;;;;;;6.52;64.51;100997.00;1782693;79;25873;-78
2021/03/27 02:42:01;;;;;;;54.63;27.42;;;;;;;6.49;64.41;100993.33;1775119;79;25821;-78
2021/03/27 02:44:33;;;;;;;56.45;30.00;;;;;;;6.49;64.48;100986.67;1778358;79;25880;-78
2021/03/27 02:47:30;;;;;;;54.90;28.77;;;;;;;6.47;64.41;100993.98;1767710;79;25755;-78
2021/03/27 02:50:12;;;;;;;54.77;27.93;;;;;;;6.47;64.42;100991.80;1754967;79;27340;-78
2021/03/27 02:53:03;;;;;;;57.00;28.75;;;;;;;6.47;64.44;100995.30;1759123;79;25839;-78
2021/03/27 02:56:18;;;;;;;53.10;28.77;;;;;;;6.50;64.31;100996.31;1779596;79;25823;-77
2021/03/27 02:59:09;;;;;;;59.13;29.42;;;;;;;6.49;64.23;100985.34;1775564;79;26498;-78
2021/03/27 03:01:59;;;;;;;58.10;30.82;;;;;;;6.46;64.19;100985.63;1789502;79;25990;-78
2021/03/27 03:04:47;;;;;;;59.90;31.60;;;;;;;6.42;64.12;100984.75;1752359;79;28483;-78
2021/03/27 03:07:38;;;;;;;56.77;30.50;;;;;;;6.39;64.27;100982.41;1780941;79;25802;-78
2021/03/27 03:10:41;;;;;;;61.10;33.67;;;;;;;6.39;64.28;100983.74;1792343;78;35036;-78
2021/03/27 03:13:35;;;;;;;61.00;31.25;;;;;;;6.34;64.29;100970.89;1776116;78;25813;-77
2021/03/27 03:16:38;;;;;;;58.33;30.50;;;;;;;6.36;64.36;100970.73;1774691;78;26448;-78
2021/03/27 03:19:22;;;;;;;64.12;32.10;;;;;;;6.30;64.32;100955.37;1797744;78;28278;-78
2021/03/27 03:22:18;;;;;;;61.33;32.30;;;;;;;6.27;64.48;100958.32;1792441;78;25864;-78
2021/03/27 03:24:54;;;;;;;60.83;31.45;;;;;;;6.24;64.57;100962.95;1773848;78;25832;-78
2021/03/27 03:27:57;;;;;;;62.43;31.82;;;;;;;6.27;64.60;100954.33;1762235;79;26125;-78
2021/03/27 03:30:35;;;;;;;69.20;32.60;;;;;;;6.24;64.50;100948.84;1793883;78;25841;-77
2021/03/27 03:33:19;;;;;;;61.05;31.12;;;;;;;6.23;64.57;100957.31;1779405;79;26958;-79
2021/03/27 03:35:55;;;;;;;63.08;32.17;;;;;;;6.22;64.61;100952.95;1769263;79;25829;-78
2021/03/27 03:38:49;;;;;;;69.82;31.77;;;;;;;6.21;64.69;100967.27;1782451;78;26607;-78
2021/03/27 03:41:49;;;;;;;59.23;30.97;;;;;;;6.21;64.66;100963.76;1801245;78;26113;-78
2021/03/27 03:44:55;;;;;;;60.70;31.33;;;;;;;6.22;64.71;100969.44;1790530;78;26031;-79
2021/03/27 03:47:40;;;;;;;61.28;28.60;;;;;;;6.22;64.61;100957.47;1797570;78;28068;-79
2021/03/27 03:50:40;;;;;;;60.08;30.80;;;;;;;6.19;64.57;100953.28;1774731;78;26248;-79
2021/03/27 03:53:24;;;;;;;69.22;32.48;;;;;;;6.19;64.71;100957.75;1797975;78;25782;-78
2021/03/27 03:56:26;;;;;;;56.13;28.98;;;;;;;6.16;64.82;100956.22;1775008;78;25880;-79
2021/03/27 03:59:26;;;;;;;62.13;31.85;;;;;;;6.11;64.88;100951.02;1753561;78;26682;-78
2021/03/27 04:02:07;;;;;;;60.70;32.90;;;;;;;6.03;65.07;100942.45;1765696;79;28453;-78
2021/03/27 04:04:44;;;;;;;71.25;33.67;;;;;;;5.96;65.24;100937.89;1797138;78;26061;-78
2021/03/27 04:07:23;;;;;;;66.02;32.90;;;;;;;5.94;65.46;100941.19;1750510;80;26367;-78
2021/03/27 04:10:02;;;;;;;57.38;31.23;;;;;;;5.93;65.55;100926.20;1765546;79;25521;-78
2021/03/27 04:12:43;;;;;;;64.45;31.68;;;;;;;5.91;65.70;100925.52;1777182;79;25907;-78
2021/03/27 04:15:16;;;;;;;66.60;33.08;;;;;;;5.89;65.84;100924.84;1789834;79;28422;-78
2021/03/27 04:17:49;;;;;;;62.20;33.18;;;;;;;5.88;65.94;100921.33;1793090;78;26034;-78
2021/03/27 04:20:48;;;;;;;64.92;32.13;;;;;;;5.88;66.11;100915.20;1768410;80;26481;-78
2021/03/27 04:23:24;;;;;;;65.10;35.00;;;;;;;5.90;66.18;100912.72;1769346;79;25819;-78
2021/03/27 04:26:15;;;;;;;63.98;33.30;;;;;;;5.93;66.31;100916.42;1773161;78;26256;-78
2021/03/27 04:28:53;;;;;;;66.53;33.75;;;;;;;5.93;66.39;100918.23;1779126;79;28444;-78
2021/03/27 04:31:58;;;;;;;68.50;32.75;;;;;;;5.92;66.40;100909.41;1767724;79;26520;-78
2021/03/27 04:34:35;;;;;;;68.12;32.55;;;;;;;5.94;66.65;100902.64;1772327;78;25893;-78
2021/03/27 04:37:41;;;;;;;66.02;32.78;;;;;;;5.94;66.73;100902.64;1790886;79;25752;-77
2021/03/27 04:40:17;;;;;;;66.42;33.92;;;;;;;5.94;66.78;100900.82;1760525;78;25850;-78
2021/03/27 04:43:02;;;;;;;71.25;33.90;;;;;;;5.95;66.87;100889.67;1791523;79;28348;-78
2021/03/27 04:45:47;;;;;;;105.72;42.95;;;;;;;5.98;66.84;100890.71;1801413;78;26087;-79
2021/03/27 04:48:42;;;;;;;91.90;39.70;;;;;;;6.02;66.93;100894.25;1709995;83;25767;-79
2021/03/27 04:51:26;;;;;;;74.70;36.60;;;;;;;6.08;66.93;100899.45;1729318;82;25799;-79
2021/03/27 04:54:07;;;;;;;74.53;36.10;;;;;;;6.11;66.92;100904.48;1750588;81;25938;-78
2021/03/27 04:57:01;;;;;;;71.87;35.13;;;;;;;6.14;67.02;100912.14;1724822;81;28449;-78
2021/03/27 04:59:56;;;;;;;68.67;34.98;;;;;;;6.17;66.94;100910.04;1745526;81;25821;-78
2021/03/27 05:02:49;;;;;;;67.62;34.27;;;;;;;6.22;67.06;100922.89;1714795;82;25875;-77
2021/03/27 05:05:28;;;;;;;69.00;33.65;;;;;;;6.23;67.15;100918.73;1724784;81;26004;-78
2021/03/27 05:08:15;;;;;;;66.30;35.65;;;;;;;6.24;67.17;100919.58;1735731;81;25904;-78
2021/03/27 05:11:02;;;;;;;68.57;31.93;;;;;;;6.22;67.26;100915.72;1712017;82;27560;-79
2021/03/27 05:13:44;;;;;;;80.55;35.50;;;;;;;6.21;67.36;100911.41;1737771;81;26078;-78
2021/03/27 05:16:32;;;;;;;71.87;35.40;;;;;;;6.25;67.40;100917.25;1729641;81;25759;-78
2021/03/27 05:19:35;;;;;;;69.10;35.98;;;;;;;6.28;67.57;100918.28;1713771;81;25821;-79
2021/03/27 05:22:14;;;;;;;74.15;37.98;;;;;;;6.35;67.57;100928.64;1725719;81;25734;-78
2021/03/27 05:25:10;;;;;;;71.80;36.93;;;;;;;6.41;67.62;100925.41;1731080;81;27540;-77
2021/03/27 05:28:09;;;;;;;79.03;39.27;;;;;;;6.46;67.55;100920.96;1741618;81;25714;-77
2021/03/27 05:31:20;;;;;;;70.87;37.50;;;;;;;6.49;67.49;100913.98;1719391;82;25812;-77
2021/03/27 05:34:04;;;;;;;75.17;38.35;;;;;;;6.49;67.44;100922.81;1728714;81;34911;-78
2021/03/27 05:37:16;;;;;;;74.20;38.95;;;;;;;6.50;67.37;100912.48;1744956;81;25708;-78
2021/03/27 05:39:55;;;;;;;76.53;38.50;;;;;;;6.49;67.36;100909.98;1730674;81;28437;-77
2021/03/27 05:42:50;;;;;;;73.07;38.38;;;;;;;6.48;67.42;100908.34;1745589;81;26684;-77
2021/03/27 05:45:37;;;;;;;83.40;40.73;;;;;;;6.49;67.58;100912.66;1717272;82;26478;-78
2021/03/27 05:48:31;;;;;;;91.00;45.80;;;;;;;6.52;67.65;100911.03;1745370;81;25895;-77
2021/03/27 05:51:36;;;;;;;94.55;47.70;;;;;;;6.57;67.93;100911.39;1642209;85;25876;-77
2021/03/27 05:54:27;;;;;;;87.20;41.30;;;;;;;6.61;67.77;100905.61;1738442;81;28399;-77
2021/03/27 05:57:31;;;;;;;78.33;41.53;;;;;;;6.67;67.85;100903.66;1745053;81;33250;-77
2021/03/27 06:00:18;;;;;;;76.25;41.65;;;;;;;6.73;67.86;100911.05;1740585;81;25820;-77
2021/03/27 06:03:29;;;;;;;80.92;40.23;;;;;;;6.77;67.78;100897.77;1736324;82;26436;-77
2021/03/27 06:06:29;;;;;;;78.80;39.95;;;;;;;6.80;67.78;100898.77;1744346;81;26252;-77
2021/03/27 06:09:34;;;;;;;75.05;39.35;;;;;;;6.82;67.75;100892.79;1714142;81;28433;-77
2021/03/27 06:12:21;;;;;;;81.90;42.67;;;;;;;6.86;67.81;100891.48;1740174;81;25696;-79
2021/03/27 06:15:17;;;;;;;79.72;40.92;;;;;;;6.89;67.95;100892.52;1715679;81;26552;-80
2021/03/27 06:17:59;;;;;;;80.30;40.67;;;;;;;6.94;68.01;100895.56;1744014;81;25817;-80
2021/03/27 06:20:51;;;;;;;81.70;41.18;;;;;;;7.00;68.04;100895.41;1742794;81;25708;-79
2021/03/27 06:23:57;;;;;;;82.02;39.73;;;;;;;7.05;67.98;100890.47;1734609;81;27529;-79
2021/03/27 06:26:56;;;;;;;77.05;38.65;;;;;;;7.10;68.08;100887.34;1719489;81;25378;-79
2021/03/27 06:29:51;;;;;;;73.45;38.55;;;;;;;7.15;68.17;100882.35;1721668;81;25816;-79
2021/03/27 06:32:32;;;;;;;76.95;39.48;;;;;;;7.17;68.10;100881.20;1728417;81;25849;-79
2021/03/27 06:35:20;;;;;;;;;;;;;;;7.22;68.08;100888.73;1742997;81;26112;-79
2021/03/27 06:38:17;;;;;;;75.10;40.45;;;;;;;7.28;68.25;100886.76;1719412;81;27347;-79
2021/03/27 06:41:02;;;;;;;77.20;41.65;;;;;;;7.34;68.28;100890.11;1744241;81;25763;-79
2021/03/27 06:44:07;;;;;;;81.25;41.25;;;;;;;7.40;68.28;100886.31;1736444;81;26031;-79
2021/03/27 06:47:10;;;;;;;73.47;38.70;;;;;;;7.48;68.43;100879.72;1740791;81;25748;-79
2021/03/27 06:49:58;;;;;;;79.42;41.18;;;;;;;7.52;68.47;100878.40;1718493;81;25799;-79
2021/03/27 06:53:02;;;;;;;78.57;39.08;;;;;;;7.58;68.46;100874.24;1735942;81;29073;-79
2021/03/27 06:55:49;;;;;;;75.67;41.33;;;;;;;7.63;68.69;100875.94;1734025;81;25851;-79
2021/03/27 06:58:51;;;;;;;81.47;44.20;;;;;;;7.67;68.59;100879.46;1717894;81;25870;-79
2021/03/27 07:02:20;;;;;;;74.80;40.25;;;;;;;7.71;68.76;100875.47;1723362;81;25814;-79
2021/03/27 07:05:08;;;;;;;75.25;39.03;;;;;;;7.75;68.63;100878.14;1746599;81;26213;-78
2021/03/27 07:07:56;;;;;;;82.53;42.03;;;;;;;7.79;68.57;100874.16;1725944;81;27554;-78
2021/03/27 07:11:21;;;;;;;90.30;45.10;;;;;;;7.80;68.43;100869.14;1749577;81;25800;-78
2021/03/27 07:14:08;;;;;;;87.88;43.83;;;;;;;7.85;68.45;100867.33;1720919;82;25891;-78
2021/03/27 07:16:47;;;;;;;91.45;45.05;;;;;;;7.89;68.40;100866.52;1745273;81;25762;-78
2021/03/27 07:19:57;;;;;;;87.67;44.77;;;;;;;7.95;68.49;100867.20;1727329;81;25856;-78
2021/03/27 07:23:05;;;;;;;88.92;45.60;;;;;;;8.05;68.61;100870.55;1721432;81;27552;-77
2021/03/27 07:25:47;;;;;;;114.47;54.30;;;;;;;8.21;68.87;100866.59;1721520;81;25765;-78
2021/03/27 07:29:01;;;;;;;105.17;52.50;;;;;;;8.37;68.50;100868.80;1709675;81;25901;-78
2021/03/27 07:31:46;;;;;;;115.67;55.73;;;;;;;8.46;68.27;100866.47;1740292;81;26399;-78
2021/03/27 07:34:39;;;;;;;114.25;51.77;;;;;;;8.53;68.18;100855.44;1712257;81;25903;-78
2021/03/27 07:37:21;;;;;;;95.35;47.75;;;;;;;8.69;68.07;100861.28;1753248;80;27417;-78
2021/03/27 07:40:01;;;;;;;88.07;45.65;;;;;;;8.84;68.07;100850.25;1739605;81;26073;-78
2021/03/27 07:42:40;;;;;;;81.90;42.93;;;;;;;9.00;68.00;100850.20;1765729;80;25809;-78
2021/03/27 07:46:05;;;;;;;85.67;44.93;;;;;;;9.17;67.59;100849.16;1724818;81;26495;-78
2021/03/27 07:49:03;;;;;;;72.70;40.48;;;;;;;9.36;67.37;100843.09;1718073;81;26203;-78
2021/03/27 07:51:58;;;;;;;79.50;43.40;;;;;;;9.55;67.23;100850.70;1759952;80;27516;-78
2021/03/27 07:55:14;;;;;;;72.72;39.60;;;;;;;9.67;66.69;100846.13;1720608;82;25761;-79
2021/03/27 07:57:53;;;;;;;76.92;42.17;;;;;;;9.78;66.61;100844.90;1740593;81;25856;-78
2021/03/27 08:00:41;;;;;;;72.78;38.80;;;;;;;9.92;66.44;100846.31;1732914;80;25880;-78
2021/03/27 08:03:42;;;;;;;73.83;41.30;;;;;;;10.07;66.31;100845.88;1700638;81;29560;-77
2021/03/27 08:06:33;;;;;;;80.70;44.27;;;;;;;10.22;66.23;100846.50;1734813;81;27521;-77
2021/03/27 08:09:27;;;;;;;82.42;42.83;;;;;;;10.36;65.68;100847.05;1676883;84;26497;-75
2021/03/27 08:12:06;;;;;;;82.80;44.80;;;;;;;10.47;66.02;100842.12;1680949;84;25816;-77
2021/03/27 08:14:54;;;;;;;86.10;45.38;;;;;;;10.60;65.88;100842.34;1703817;82;25852;-76
2021/03/27 08:17:37;;;;;;;98.42;52.65;;;;;;;10.71;65.73;100840.55;1685444;82;26301;-75
2021/03/27 08:20:50;;;;;;;91.40;47.75;;;;;;;10.82;65.63;100836.09;1695938;83;28450;-76
2021/03/27 08:23:23;;;;;;;89.20;47.35;;;;;;;10.96;65.49;100834.45;1658766;84;25999;-76
2021/03/27 08:26:20;;;;;;;81.17;46.45;;;;;;;11.12;65.73;100834.80;1678534;84;25743;-76
2021/03/27 08:31:54;;;;;;;88.03;46.95;;;;;;;11.47;64.94;100826.83;1788099;79;25769;-81
2021/03/27 08:35:17;;;;;;;80.38;46.15;;;;;;;11.57;64.83;100829.20;1720554;81;25844;-76
2021/03/27 08:38:11;;;;;;;76.50;43.40;;;;;;;11.72;64.74;100827.35;1743496;81;28458;-79
2021/03/27 08:41:14;;;;;;;78.97;45.20;;;;;;;11.88;64.49;100817.75;1715724;81;25829;-74
2021/03/27 08:44:15;;;;;;;75.60;42.48;;;;;;;12.02;64.46;100811.99;1747707;81;25856;-75
2021/03/27 08:47:38;;;;;;;82.67;44.70;;;;;;;12.12;64.49;100814.71;1714950;81;25727;-75
2021/03/27 08:50:26;;;;;;;78.40;39.73;;;;;;;12.23;64.28;100814.70;1741071;81;25831;-76
2021/03/27 08:53:17;;;;;;;88.82;48.80;;;;;;;12.36;63.87;100797.34;1723216;81;27551;-76
2021/03/27 08:55:59;;;;;;;81.28;45.55;;;;;;;12.55;63.69;100805.27;1711559;81;26230;-77
2021/03/27 08:59:02;;;;;;;73.45;42.53;;;;;;;12.74;63.52;100794.69;1705557;81;25858;-76
2021/03/27 09:02:03;;;;;;;75.55;42.13;;;;;;;12.93;62.82;100783.23;1736572;81;25628;-76
2021/03/27 09:04:39;;;;;;;71.62;39.70;;;;;;;13.11;62.83;100780.03;1717396;80;25906;-75
2021/03/27 09:07:15;;;;;;;61.30;31.55;;;;;;;13.27;62.45;100778.38;1743498;80;26889;-77
2021/03/27 09:10:07;;;;;;;54.77;30.85;;;;;;;13.45;60.99;100777.30;1693468;81;25917;-76
2021/03/27 09:13:12;;;;;;;52.45;28.00;;;;;;;13.63;59.78;100768.67;1703037;83;25753;-75
2021/03/27 09:16:20;;;;;;;54.53;29.82;;;;;;;13.76;58.98;100763.34;1710410;82;25716;-76
2021/03/27 09:19:14;;;;;;;44.75;25.23;;;;;;;13.94;59.04;100767.64;1674636;83;26327;-77
2021/03/27 09:22:14;;;;;;;47.73;27.37;;;;;;;14.12;58.66;100763.81;1677624;83;28295;-77
2021/03/27 09:25:05;;;;;;;49.13;26.15;;;;;;;14.27;58.69;100763.10;1683240;83;25948;-76
2021/03/27 09:27:50;;;;;;;53.17;26.97;;;;;;;14.46;57.58;100747.48;1695898;83;26402;-76
2021/03/27 09:30:58;;;;;;;47.55;27.52;;;;;;;14.58;55.91;100750.39;1702404;82;25747;-77
2021/03/27 09:34:00;;;;;;;47.20;26.02;;;;;;;14.67;55.12;100745.91;1659683;84;25845;-75
2021/03/27 09:36:42;;;;;;;47.62;26.70;;;;;;;14.77;55.99;100742.79;1670930;84;28543;-76
2021/03/27 09:39:47;;;;;;;41.45;23.73;;;;;;;14.91;55.04;100739.02;1691882;84;25840;-76
2021/03/27 09:42:38;;;;;;;45.38;23.47;;;;;;;15.03;54.54;100735.16;1696047;83;25769;-76
2021/03/27 09:45:25;;;;;;;;;;;;;;;15.17;54.39;100732.70;1675729;84;25814;-76
2021/03/27 09:48:27;;;;;;;44.10;23.87;;;;;;;15.23;53.35;100734.03;1678087;84;25414;-76
2021/03/27 09:51:19;;;;;;;42.17;24.07;;;;;;;15.27;52.49;100735.26;1646247;84;28165;-76
2021/03/27 09:54:04;;;;;;;44.20;23.87;;;;;;;15.32;53.40;100727.36;1644809;84;25921;-75
2021/03/27 09:56:54;;;;;;;42.25;23.98;;;;;;;15.42;53.57;100732.28;1637841;85;25502;-76
2021/03/27 09:59:47;;;;;;;38.00;23.42;;;;;;;15.52;52.65;100730.00;1660967;84;26117;-76
2021/03/27 10:02:29;;;;;;;38.63;22.82;;;;;;;15.59;52.91;100729.42;1640198;85;26582;-75
2021/03/27 10:05:24;;;;;;;42.20;24.12;;;;;;;15.67;52.16;100725.14;1643191;85;27557;-75
2021/03/27 10:08:15;;;;;;;40.35;24.55;;;;;;;15.74;52.59;100723.76;1657536;85;25955;-76
2021/03/27 10:10:55;;;;;;;;;;;;;;;15.81;50.78;100724.00;1682265;84;25850;-76
2021/03/27 10:14:12;;;;;;;45.58;25.52;;;;;;;15.88;51.26;100712.64;1668653;85;25839;-75
2021/03/27 10:17:09;;;;;;;46.80;24.37;;;;;;;15.92;49.78;100707.63;1662611;85;25892;-76
2021/03/27 10:20:23;;;;;;;40.45;24.25;;;;;;;15.99;50.83;100703.00;1661920;85;27546;-75
2021/03/27 10:23:11;;;;;;;38.85;23.73;;;;;;;16.03;50.37;100702.87;1645609;85;25816;-76
2021/03/27 10:26:23;;;;;;;39.55;22.77;;;;;;;16.10;49.82;100700.95;1645688;85;26414;-76
2021/03/27 10:29:34;;;;;;;42.40;25.65;;;;;;;16.18;49.95;100697.45;1707976;83;25836;-75
2021/03/27 10:31:46;;;;;;;41.50;24.72;;;;;;;16.21;48.32;100691.58;1719147;81;26576;-76
2021/03/27 10:34:41;;;;;;;46.28;24.32;;;;;;;16.28;49.00;100693.39;1679256;81;27547;-76
2021/03/27 10:37:33;;;;;;;38.30;22.93;;;;;;;16.34;48.76;100695.23;1685904;84;25836;-77
2021/03/27 10:40:31;;;;;;;34.35;21.10;;;;;;;16.40;49.34;100693.00;1687991;83;25769;-75
2021/03/27 10:43:42;;;;;;;37.93;20.20;;;;;;;16.45;49.41;100680.45;1710602;83;26120;-76
2021/03/27 10:46:34;;;;;;;39.55;22.20;;;;;;;16.47;48.95;100670.75;1695600;81;25713;-76
2021/03/27 10:49:22;;;;;;;39.33;21.40;;;;;;;16.47;48.85;100671.59;1661023;84;27539;-76
2021/03/27 10:52:12;;;;;;;33.83;19.73;;;;;;;16.50;48.54;100662.24;1656153;84;25944;-77
2021/03/27 10:55:07;;;;;;;41.85;21.70;;;;;;;16.57;49.23;100662.45;1689804;83;25766;-76
2021/03/27 10:57:46;;;;;;;34.23;19.75;;;;;;;16.67;48.49;100654.67;1685837;83;26342;-76
2021/03/27 11:00:54;;;;;;;40.95;20.85;;;;;;;16.81;48.29;100651.27;1678051;83;25828;-76
2021/03/27 11:03:55;;;;;;;35.15;19.73;;;;;;;16.95;48.99;100657.68;1684514;83;28832;-77
2021/03/27 11:06:42;;;;;;;;;;;;;;;17.11;47.99;100654.86;1688240;84;26090;-77
2021/03/27 11:10:00;;;;;;;36.93;21.65;;;;;;;17.17;48.22;100653.95;1689272;83;26421;-77
2021/03/27 11:12:56;;;;;;;33.40;19.65;;;;;;;17.25;48.32;100657.72;1687863;84;25363;-77
2021/03/27 11:16:02;;;;;;;38.17;20.50;;;;;;;17.33;48.17;100654.68;1695581;83;25797;-77
2021/03/27 11:19:10;;;;;;;28.57;17.73;;;;;;;17.41;47.80;100648.10;1660764;84;27566;-77
2021/03/27 11:22:04;;;;;;;35.80;18.32;;;;;;;17.52;46.94;100637.36;1685772;83;25895;-76
2021/03/27 11:25:02;;;;;;;31.27;16.00;;;;;;;17.60;46.81;100634.30;1644249;83;25968;-76
2021/03/27 11:27:49;;;;;;;39.73;20.10;;;;;;;17.67;44.14;100630.98;1678010;83;25979;-77
2021/03/27 11:30:34;;;;;;;29.77;17.45;;;;;;;17.80;45.95;100632.65;1695337;82;25887;-77
2021/03/27 11:33:55;;;;;;;34.38;15.43;;;;;;;17.95;45.78;100633.55;1681788;84;28990;-77
2021/03/27 11:36:56;;;;;;;28.40;15.90;;;;;;;18.01;42.31;100629.38;1681362;84;25778;-76
2021/03/27 11:40:17;;;;;;;22.58;12.73;;;;;;;18.05;44.51;100634.63;1660498;84;25862;-76
2021/03/27 11:43:05;;;;;;;24.82;13.83;;;;;;;18.04;44.03;100634.34;1663933;84;25801;-76
2021/03/27 11:45:46;;;;;;;27.58;14.47;;;;;;;18.00;43.02;100637.23;1662876;84;26463;-77
2021/03/27 11:48:31;;;;;;;23.47;14.87;;;;;;;18.00;43.71;100634.52;1672154;84;27620;-77
2021/03/27 11:51:19;;;;;;;26.40;15.03;;;;;;;18.07;43.36;100621.66;1838436;77;25768;-76
2021/03/27 11:54:08;;;;;;;24.60;15.28;;;;;;;18.06;43.70;100624.61;1756250;80;25847;-77
2021/03/27 11:57:28;;;;;;;25.92;14.58;;;;;;;18.09;42.39;100630.93;1769397;79;28420;-76
2021/03/27 12:03:51;;;;;;;29.18;16.23;;;;;;;18.18;43.30;100625.43;1743242;81;26598;-77
2021/03/27 12:06:40;;;;;;;26.75;14.43;;;;;;;18.20;42.45;100626.85;1735685;81;25738;-76
2021/03/27 12:09:40;;;;;;;24.82;14.75;;;;;;;18.22;41.79;100625.28;1716760;82;26130;-76
2021/03/27 12:12:54;;;;;;;26.62;15.15;;;;;;;18.20;40.79;100628.20;1736282;82;28946;-76
2021/03/27 12:15:33;;;;;;;27.48;16.02;;;;;;;18.20;42.21;100629.56;1713119;82;26081;-76
2021/03/27 12:18:14;;;;;;;29.67;15.98;;;;;;;18.29;43.07;100622.73;1751489;81;25770;-76
2021/03/27 12:21:02;;;;;;;26.00;14.15;;;;;;;18.38;43.13;100625.91;1735073;82;26175;-77
2021/03/27 12:23:49;;;;;;;24.95;14.83;;;;;;;18.48;43.14;100622.65;1830172;77;26698;-76
2021/03/27 12:26:55;;;;;;;26.62;13.98;;;;;;;18.44;41.20;100621.75;1776938;78;25878;-76
2021/03/27 12:29:43;;;;;;;23.30;14.18;;;;;;;18.42;41.49;100625.73;1808094;78;27777;-76
2021/03/27 12:32:50;;;;;;;25.02;15.08;;;;;;;18.40;41.68;100620.55;1776994;78;26097;-76
2021/03/27 12:35:35;;;;;;;25.60;15.75;;;;;;;18.39;41.95;100622.95;1755138;79;26276;-76
2021/03/27 12:38:23;;;;;;;29.40;15.60;;;;;;;18.45;42.92;100622.03;1770271;79;25807;-77
2021/03/27 12:40:58;;;;;;;29.75;15.23;;;;;;;18.48;42.57;100612.08;1767072;78;25736;-78
2021/03/27 12:43:30;;;;;;;32.65;15.15;;;;;;;18.50;42.68;100619.97;1771788;78;28216;-77
2021/03/27 12:46:33;;;;;;;26.37;15.65;;;;;;;18.54;40.41;100614.36;1792180;78;26369;-77
2021/03/27 12:49:30;;;;;;;27.45;15.43;;;;;;;18.54;40.73;100619.78;1772576;80;25822;-77
2021/03/27 12:52:28;;;;;;;22.58;14.45;;;;;;;18.55;41.05;100619.26;1801304;78;26481;-76
2021/03/27 12:55:33;;;;;;;31.73;16.37;;;;;;;18.53;41.49;100615.95;1771456;78;25887;-77
2021/03/27 12:58:25;;;;;;;29.52;16.52;;;;;;;18.50;41.38;100613.74;1783640;78;27540;-77
2021/03/27 13:00:58;;;;;;;27.87;16.00;;;;;;;18.41;41.46;100614.60;1768507;79;25879;-76
2021/03/27 13:03:36;;;;;;;33.33;17.23;;;;;;;18.33;42.20;100617.13;1774749;78;26004;-77
2021/03/27 13:06:11;;;;;;;30.00;16.75;;;;;;;18.28;41.81;100612.93;1719054;81;25811;-77
2021/03/27 13:08:43;;;;;;;34.27;17.73;;;;;;;18.24;41.60;100618.53;1744105;80;25361;-76
2021/03/27 13:11:37;;;;;;;32.25;17.80;;;;;;;18.25;41.75;100614.78;1722249;80;27351;-77